sensor_id;sensor_type;location;lat;lon;timestamp;P1;durP1;ratioP1;P2;durP2;ratioP2
15913;SDS011;8055;51.930;8.840;2023-03-14T00:01:51;4.65;;;1.80;;
15913;SDS011;8055;51.930;8.840;2023-03-14T00:04:16;6.78;;;1.70;;
15913;SDS011;8055;51.930;8.840;2023-03-14T00:06:42;4.22;;;1.52;;
15913;SDS011;8055;51.930;8.840;2023-03-14T00:09:07;5.05;;;1.70;;
15913;SDS011;8055;51.930;8.840;2023-03-14T00:11:33;4.65;;;1.63;;
15913;SDS011;8055;51.930;8.840;2023-03-14T00:13:58;6.55;;;1.77;;
15913;SDS011;8055;51.930;8.840;2023-03-14T00:16:24;2.85;;;1.52;;
15913;SDS011;8055;51.930;8.840;2023-03-14T00:18:50;6.97;;;1.38;;
15913;SDS011;8055;51.930;8.840;2023-03-14T00:21:15;3.78;;;1.70;;
15913;SDS011;8055;51.930;8.840;2023-03-14T00:23:42;3.53;;;1.60;;
15913;SDS011;8055;51.930;8.840;2023-03-14T00:26:08;2.95;;;1.75;;
15913;SDS011;8055;51.930;8.840;2023-03-14T00:28:36;4.50;;;1.50;;
15913;SDS011;8055;51.930;8.840;2023-03-14T00:31:02;4.88;;;1.67;;
15913;SDS011;8055;51.930;8.840;2023-03-14T00:33:32;5.15;;;1.73;;
15913;SDS011;8055;51.930;8.840;2023-03-14T00:36:04;4.05;;;1.52;;
15913;SDS011;8055;51.930;8.840;2023-03-14T00:38:34;8.98;;;1.60;;
15913;SDS011;8055;51.930;8.840;2023-03-14T00:41:04;4.57;;;1.50;;
15913;SDS011;8055;51.930;8.840;2023-03-14T00:43:31;6.55;;;2.22;;
15913;SDS011;8055;51.930;8.840;2023-03-14T00:45:56;5.85;;;1.80;;
15913;SDS011;8055;51.930;8.840;2023-03-14T00:48:22;7.32;;;1.50;;
15913;SDS011;8055;51.930;8.840;2023-03-14T00:50:47;6.07;;;1.90;;
15913;SDS011;8055;51.930;8.840;2023-03-14T00:53:13;5.00;;;1.52;;
15913;SDS011;8055;51.930;8.840;2023-03-14T00:55:39;5.05;;;1.88;;
15913;SDS011;8055;51.930;8.840;2023-03-14T00:58:07;8.32;;;1.90;;
15913;SDS011;8055;51.930;8.840;2023-03-14T01:00:32;4.38;;;1.52;;
15913;SDS011;8055;51.930;8.840;2023-03-14T01:02:58;3.25;;;1.40;;
15913;SDS011;8055;51.930;8.840;2023-03-14T01:05:23;7.43;;;1.77;;
15913;SDS011;8055;51.930;8.840;2023-03-14T01:07:49;4.45;;;1.40;;
15913;SDS011;8055;51.930;8.840;2023-03-14T01:10:15;5.18;;;1.75;;
15913;SDS011;8055;51.930;8.840;2023-03-14T01:12:41;3.95;;;1.60;;
15913;SDS011;8055;51.930;8.840;2023-03-14T01:15:06;5.60;;;1.67;;
15913;SDS011;8055;51.930;8.840;2023-03-14T01:17:32;6.28;;;1.90;;
15913;SDS011;8055;51.930;8.840;2023-03-14T01:19:58;8.10;;;1.98;;
15913;SDS011;8055;51.930;8.840;2023-03-14T01:22:24;6.18;;;1.65;;
15913;SDS011;8055;51.930;8.840;2023-03-14T01:24:50;5.93;;;1.60;;
15913;SDS011;8055;51.930;8.840;2023-03-14T01:27:16;6.35;;;1.65;;
15913;SDS011;8055;51.930;8.840;2023-03-14T01:29:41;9.95;;;2.25;;
15913;SDS011;8055;51.930;8.840;2023-03-14T01:32:06;7.22;;;1.60;;
15913;SDS011;8055;51.930;8.840;2023-03-14T01:34:32;6.20;;;2.28;;
15913;SDS011;8055;51.930;8.840;2023-03-14T01:36:57;7.03;;;1.80;;
15913;SDS011;8055;51.930;8.840;2023-03-14T01:39:23;10.25;;;2.35;;
15913;SDS011;8055;51.930;8.840;2023-03-14T01:41:48;5.20;;;1.50;;
15913;SDS011;8055;51.930;8.840;2023-03-14T01:44:13;7.00;;;1.95;;
15913;SDS011;8055;51.930;8.840;2023-03-14T01:49:06;6.45;;;2.13;;
15913;SDS011;8055;51.930;8.840;2023-03-14T01:51:36;8.18;;;1.70;;
15913;SDS011;8055;51.930;8.840;2023-03-14T01:57:17;6.28;;;1.92;;
15913;SDS011;8055;51.930;8.840;2023-03-14T01:59:47;4.03;;;1.50;;
15913;SDS011;8055;51.930;8.840;2023-03-14T02:02:19;6.53;;;2.08;;
15913;SDS011;8055;51.930;8.840;2023-03-14T02:04:45;5.95;;;2.05;;
15913;SDS011;8055;51.930;8.840;2023-03-14T02:09:39;4.05;;;1.73;;
15913;SDS011;8055;51.930;8.840;2023-03-14T02:12:05;5.13;;;1.80;;
15913;SDS011;8055;51.930;8.840;2023-03-14T02:14:33;7.15;;;1.92;;
15913;SDS011;8055;51.930;8.840;2023-03-14T02:17:00;8.98;;;2.05;;
15913;SDS011;8055;51.930;8.840;2023-03-14T02:22:33;6.68;;;1.55;;
15913;SDS011;8055;51.930;8.840;2023-03-14T02:27:27;5.10;;;1.55;;
15913;SDS011;8055;51.930;8.840;2023-03-14T02:29:54;8.15;;;1.63;;
15913;SDS011;8055;51.930;8.840;2023-03-14T02:32:24;7.90;;;1.92;;
15913;SDS011;8055;51.930;8.840;2023-03-14T02:34:53;6.07;;;1.75;;
15913;SDS011;8055;51.930;8.840;2023-03-14T02:37:22;6.28;;;1.70;;
15913;SDS011;8055;51.930;8.840;2023-03-14T02:39:52;6.13;;;1.52;;
15913;SDS011;8055;51.930;8.840;2023-03-14T02:42:17;7.88;;;1.77;;
15913;SDS011;8055;51.930;8.840;2023-03-14T02:44:51;6.20;;;2.13;;
15913;SDS011;8055;51.930;8.840;2023-03-14T02:47:29;6.82;;;1.75;;
15913;SDS011;8055;51.930;8.840;2023-03-14T02:49:58;5.60;;;1.63;;
15913;SDS011;8055;51.930;8.840;2023-03-14T02:52:27;9.68;;;1.90;;
15913;SDS011;8055;51.930;8.840;2023-03-14T02:54:53;3.92;;;1.30;;
15913;SDS011;8055;51.930;8.840;2023-03-14T02:57:18;5.82;;;1.25;;
15913;SDS011;8055;51.930;8.840;2023-03-14T02:59:44;4.40;;;1.40;;
15913;SDS011;8055;51.930;8.840;2023-03-14T03:02:09;3.83;;;1.20;;
15913;SDS011;8055;51.930;8.840;2023-03-14T03:04:34;4.63;;;0.90;;
15913;SDS011;8055;51.930;8.840;2023-03-14T03:07:00;6.78;;;1.60;;
15913;SDS011;8055;51.930;8.840;2023-03-14T03:09:25;5.97;;;1.48;;
15913;SDS011;8055;51.930;8.840;2023-03-14T03:11:50;5.72;;;1.50;;
15913;SDS011;8055;51.930;8.840;2023-03-14T03:14:16;4.15;;;1.20;;
15913;SDS011;8055;51.930;8.840;2023-03-14T03:16:41;3.65;;;1.10;;
15913;SDS011;8055;51.930;8.840;2023-03-14T03:19:06;6.03;;;1.25;;
15913;SDS011;8055;51.930;8.840;2023-03-14T03:21:32;1.90;;;0.75;;
15913;SDS011;8055;51.930;8.840;2023-03-14T03:23:57;3.28;;;0.80;;
15913;SDS011;8055;51.930;8.840;2023-03-14T03:26:22;3.92;;;0.77;;
15913;SDS011;8055;51.930;8.840;2023-03-14T03:28:50;2.60;;;0.77;;
15913;SDS011;8055;51.930;8.840;2023-03-14T03:31:16;1.05;;;0.40;;
15913;SDS011;8055;51.930;8.840;2023-03-14T03:33:41;1.95;;;0.60;;
15913;SDS011;8055;51.930;8.840;2023-03-14T03:36:07;1.77;;;0.70;;
15913;SDS011;8055;51.930;8.840;2023-03-14T03:38:33;4.88;;;0.60;;
15913;SDS011;8055;51.930;8.840;2023-03-14T03:41:01;1.90;;;0.63;;
15913;SDS011;8055;51.930;8.840;2023-03-14T03:43:27;1.48;;;0.40;;
15913;SDS011;8055;51.930;8.840;2023-03-14T03:45:53;1.38;;;0.68;;
15913;SDS011;8055;51.930;8.840;2023-03-14T03:48:18;2.60;;;0.70;;
15913;SDS011;8055;51.930;8.840;2023-03-14T03:50:44;1.67;;;0.55;;
15913;SDS011;8055;51.930;8.840;2023-03-14T03:53:11;2.45;;;0.63;;
15913;SDS011;8055;51.930;8.840;2023-03-14T03:55:36;3.63;;;0.68;;
15913;SDS011;8055;51.930;8.840;2023-03-14T03:58:01;3.33;;;0.80;;
15913;SDS011;8055;51.930;8.840;2023-03-14T04:00:27;5.28;;;0.90;;
15913;SDS011;8055;51.930;8.840;2023-03-14T04:02:52;1.80;;;0.70;;
15913;SDS011;8055;51.930;8.840;2023-03-14T04:05:18;4.53;;;1.13;;
15913;SDS011;8055;51.930;8.840;2023-03-14T04:07:43;4.63;;;1.10;;
15913;SDS011;8055;51.930;8.840;2023-03-14T04:10:09;2.30;;;0.65;;
15913;SDS011;8055;51.930;8.840;2023-03-14T04:12:34;8.52;;;1.58;;
15913;SDS011;8055;51.930;8.840;2023-03-14T04:15:00;8.27;;;1.33;;
15913;SDS011;8055;51.930;8.840;2023-03-14T04:17:25;8.73;;;1.52;;
15913;SDS011;8055;51.930;8.840;2023-03-14T04:19:50;4.55;;;1.50;;
15913;SDS011;8055;51.930;8.840;2023-03-14T04:22:18;6.57;;;1.50;;
15913;SDS011;8055;51.930;8.840;2023-03-14T04:24:43;4.93;;;1.30;;
15913;SDS011;8055;51.930;8.840;2023-03-14T04:27:08;3.67;;;1.38;;
15913;SDS011;8055;51.930;8.840;2023-03-14T04:29:34;8.50;;;1.40;;
15913;SDS011;8055;51.930;8.840;2023-03-14T04:31:59;7.00;;;1.25;;
15913;SDS011;8055;51.930;8.840;2023-03-14T04:34:25;5.93;;;1.58;;
15913;SDS011;8055;51.930;8.840;2023-03-14T04:36:50;4.72;;;1.40;;
15913;SDS011;8055;51.930;8.840;2023-03-14T04:39:16;6.45;;;1.55;;
15913;SDS011;8055;51.930;8.840;2023-03-14T04:41:41;6.20;;;1.23;;
15913;SDS011;8055;51.930;8.840;2023-03-14T04:44:06;4.28;;;1.10;;
15913;SDS011;8055;51.930;8.840;2023-03-14T04:46:32;9.27;;;1.42;;
15913;SDS011;8055;51.930;8.840;2023-03-14T04:48:57;4.95;;;1.20;;
15913;SDS011;8055;51.930;8.840;2023-03-14T04:51:22;5.82;;;1.10;;
15913;SDS011;8055;51.930;8.840;2023-03-14T04:53:52;1.73;;;0.80;;
15913;SDS011;8055;51.930;8.840;2023-03-14T04:56:18;4.45;;;0.98;;
15913;SDS011;8055;51.930;8.840;2023-03-14T04:58:43;6.93;;;2.53;;
15913;SDS011;8055;51.930;8.840;2023-03-14T05:01:09;5.78;;;1.40;;
15913;SDS011;8055;51.930;8.840;2023-03-14T05:03:35;6.95;;;1.42;;
15913;SDS011;8055;51.930;8.840;2023-03-14T05:06:03;5.18;;;1.55;;
15913;SDS011;8055;51.930;8.840;2023-03-14T05:08:29;4.00;;;1.23;;
15913;SDS011;8055;51.930;8.840;2023-03-14T05:10:55;5.60;;;1.30;;
15913;SDS011;8055;51.930;8.840;2023-03-14T05:13:21;4.78;;;1.38;;
15913;SDS011;8055;51.930;8.840;2023-03-14T05:15:47;6.63;;;1.27;;
15913;SDS011;8055;51.930;8.840;2023-03-14T05:18:13;4.13;;;0.93;;
15913;SDS011;8055;51.930;8.840;2023-03-14T05:20:38;2.60;;;1.20;;
15913;SDS011;8055;51.930;8.840;2023-03-14T05:23:04;4.63;;;1.20;;
15913;SDS011;8055;51.930;8.840;2023-03-14T05:25:29;5.88;;;1.35;;
15913;SDS011;8055;51.930;8.840;2023-03-14T05:27:55;6.18;;;1.50;;
15913;SDS011;8055;51.930;8.840;2023-03-14T05:30:21;5.45;;;1.33;;
15913;SDS011;8055;51.930;8.840;2023-03-14T05:32:47;3.90;;;1.20;;
15913;SDS011;8055;51.930;8.840;2023-03-14T05:35:13;4.80;;;1.45;;
15913;SDS011;8055;51.930;8.840;2023-03-14T05:37:38;3.67;;;1.00;;
15913;SDS011;8055;51.930;8.840;2023-03-14T05:40:04;6.70;;;1.30;;
15913;SDS011;8055;51.930;8.840;2023-03-14T05:42:31;4.63;;;1.10;;
15913;SDS011;8055;51.930;8.840;2023-03-14T05:44:57;3.75;;;1.20;;
15913;SDS011;8055;51.930;8.840;2023-03-14T05:47:22;2.83;;;1.10;;
15913;SDS011;8055;51.930;8.840;2023-03-14T05:49:48;6.60;;;1.30;;
15913;SDS011;8055;51.930;8.840;2023-03-14T05:52:13;8.65;;;1.55;;
15913;SDS011;8055;51.930;8.840;2023-03-14T05:54:39;4.95;;;1.42;;
15913;SDS011;8055;51.930;8.840;2023-03-14T05:57:04;3.20;;;1.20;;
15913;SDS011;8055;51.930;8.840;2023-03-14T05:59:30;3.83;;;1.27;;
15913;SDS011;8055;51.930;8.840;2023-03-14T06:01:56;7.60;;;1.50;;
15913;SDS011;8055;51.930;8.840;2023-03-14T06:04:21;5.75;;;1.58;;
15913;SDS011;8055;51.930;8.840;2023-03-14T06:06:47;6.00;;;1.20;;
15913;SDS011;8055;51.930;8.840;2023-03-14T06:09:12;7.72;;;1.45;;
15913;SDS011;8055;51.930;8.840;2023-03-14T06:11:37;4.72;;;1.30;;
15913;SDS011;8055;51.930;8.840;2023-03-14T06:14:03;3.80;;;1.10;;
15913;SDS011;8055;51.930;8.840;2023-03-14T06:16:28;4.57;;;1.55;;
15913;SDS011;8055;51.930;8.840;2023-03-14T06:18:54;2.25;;;1.10;;
15913;SDS011;8055;51.930;8.840;2023-03-14T06:21:19;2.38;;;1.08;;
15913;SDS011;8055;51.930;8.840;2023-03-14T06:23:45;3.83;;;0.95;;
15913;SDS011;8055;51.930;8.840;2023-03-14T06:26:10;2.15;;;1.08;;
15913;SDS011;8055;51.930;8.840;2023-03-14T06:28:37;3.13;;;1.10;;
15913;SDS011;8055;51.930;8.840;2023-03-14T06:31:02;1.75;;;0.70;;
15913;SDS011;8055;51.930;8.840;2023-03-14T06:33:28;1.85;;;0.63;;
15913;SDS011;8055;51.930;8.840;2023-03-14T06:35:54;1.48;;;0.98;;
15913;SDS011;8055;51.930;8.840;2023-03-14T06:38:19;1.88;;;0.60;;
15913;SDS011;8055;51.930;8.840;2023-03-14T06:40:45;2.05;;;0.70;;
15913;SDS011;8055;51.930;8.840;2023-03-14T06:43:10;2.15;;;0.80;;
15913;SDS011;8055;51.930;8.840;2023-03-14T06:45:36;1.92;;;0.50;;
15913;SDS011;8055;51.930;8.840;2023-03-14T06:48:01;1.70;;;1.00;;
15913;SDS011;8055;51.930;8.840;2023-03-14T06:50:27;2.17;;;0.52;;
15913;SDS011;8055;51.930;8.840;2023-03-14T06:52:53;0.88;;;0.60;;
15913;SDS011;8055;51.930;8.840;2023-03-14T06:55:18;1.85;;;0.70;;
15913;SDS011;8055;51.930;8.840;2023-03-14T06:57:44;2.63;;;0.70;;
15913;SDS011;8055;51.930;8.840;2023-03-14T07:00:10;1.63;;;0.43;;
15913;SDS011;8055;51.930;8.840;2023-03-14T07:02:36;0.90;;;0.68;;
15913;SDS011;8055;51.930;8.840;2023-03-14T07:05:02;3.20;;;0.70;;
15913;SDS011;8055;51.930;8.840;2023-03-14T07:07:28;1.70;;;0.95;;
15913;SDS011;8055;51.930;8.840;2023-03-14T07:09:54;0.40;;;0.40;;
15913;SDS011;8055;51.930;8.840;2023-03-14T07:12:19;0.40;;;0.40;;
15913;SDS011;8055;51.930;8.840;2023-03-14T07:14:44;0.65;;;0.50;;
15913;SDS011;8055;51.930;8.840;2023-03-14T07:17:10;0.60;;;0.60;;
15913;SDS011;8055;51.930;8.840;2023-03-14T07:19:35;0.40;;;0.38;;
15913;SDS011;8055;51.930;8.840;2023-03-14T07:22:01;1.40;;;0.63;;
15913;SDS011;8055;51.930;8.840;2023-03-14T07:24:26;1.83;;;0.70;;
15913;SDS011;8055;51.930;8.840;2023-03-14T07:26:52;1.10;;;0.68;;
15913;SDS011;8055;51.930;8.840;2023-03-14T07:29:17;1.65;;;0.55;;
15913;SDS011;8055;51.930;8.840;2023-03-14T07:31:43;1.15;;;0.60;;
15913;SDS011;8055;51.930;8.840;2023-03-14T07:34:08;1.73;;;0.80;;
15913;SDS011;8055;51.930;8.840;2023-03-14T07:36:34;1.13;;;0.80;;
15913;SDS011;8055;51.930;8.840;2023-03-14T07:39:00;0.90;;;0.73;;
15913;SDS011;8055;51.930;8.840;2023-03-14T07:41:25;2.83;;;1.58;;
15913;SDS011;8055;51.930;8.840;2023-03-14T07:43:51;4.30;;;2.30;;
15913;SDS011;8055;51.930;8.840;2023-03-14T07:46:16;1.48;;;1.38;;
15913;SDS011;8055;51.930;8.840;2023-03-14T07:48:42;4.22;;;1.42;;
15913;SDS011;8055;51.930;8.840;2023-03-14T07:51:08;4.70;;;1.60;;
15913;SDS011;8055;51.930;8.840;2023-03-14T07:53:33;4.80;;;2.00;;
15913;SDS011;8055;51.930;8.840;2023-03-14T07:55:58;7.57;;;2.13;;
15913;SDS011;8055;51.930;8.840;2023-03-14T07:58:24;3.30;;;2.00;;
15913;SDS011;8055;51.930;8.840;2023-03-14T08:00:50;4.75;;;1.90;;
15913;SDS011;8055;51.930;8.840;2023-03-14T08:03:16;3.25;;;1.85;;
15913;SDS011;8055;51.930;8.840;2023-03-14T08:05:42;6.40;;;1.95;;
15913;SDS011;8055;51.930;8.840;2023-03-14T08:08:07;2.80;;;1.73;;
15913;SDS011;8055;51.930;8.840;2023-03-14T08:10:33;4.85;;;1.90;;
15913;SDS011;8055;51.930;8.840;2023-03-14T08:12:59;4.78;;;2.22;;
15913;SDS011;8055;51.930;8.840;2023-03-14T08:15:26;5.93;;;2.30;;
15913;SDS011;8055;51.930;8.840;2023-03-14T08:17:53;5.25;;;1.80;;
15913;SDS011;8055;51.930;8.840;2023-03-14T08:20:19;6.85;;;1.88;;
15913;SDS011;8055;51.930;8.840;2023-03-14T08:22:46;3.83;;;1.60;;
15913;SDS011;8055;51.930;8.840;2023-03-14T08:25:12;4.55;;;1.70;;
15913;SDS011;8055;51.930;8.840;2023-03-14T08:27:38;7.15;;;2.05;;
15913;SDS011;8055;51.930;8.840;2023-03-14T08:30:08;3.90;;;1.40;;
15913;SDS011;8055;51.930;8.840;2023-03-14T08:32:36;6.40;;;1.80;;
15913;SDS011;8055;51.930;8.840;2023-03-14T08:35:01;9.70;;;1.60;;
15913;SDS011;8055;51.930;8.840;2023-03-14T08:37:27;3.20;;;2.20;;
15913;SDS011;8055;51.930;8.840;2023-03-14T08:39:53;5.05;;;1.95;;
15913;SDS011;8055;51.930;8.840;2023-03-14T08:42:18;5.38;;;1.30;;
15913;SDS011;8055;51.930;8.840;2023-03-14T08:44:44;1.65;;;1.10;;
15913;SDS011;8055;51.930;8.840;2023-03-14T08:47:09;1.38;;;0.90;;
15913;SDS011;8055;51.930;8.840;2023-03-14T08:49:35;4.88;;;0.82;;
15913;SDS011;8055;51.930;8.840;2023-03-14T08:52:01;1.80;;;1.00;;
15913;SDS011;8055;51.930;8.840;2023-03-14T08:54:28;1.02;;;0.80;;
15913;SDS011;8055;51.930;8.840;2023-03-14T08:56:54;1.67;;;0.60;;
15913;SDS011;8055;51.930;8.840;2023-03-14T08:59:19;5.78;;;1.00;;
15913;SDS011;8055;51.930;8.840;2023-03-14T09:01:44;4.10;;;1.05;;
15913;SDS011;8055;51.930;8.840;2023-03-14T09:04:10;1.13;;;0.70;;
15913;SDS011;8055;51.930;8.840;2023-03-14T09:06:35;1.58;;;0.50;;
15913;SDS011;8055;51.930;8.840;2023-03-14T09:09:01;1.05;;;0.70;;
15913;SDS011;8055;51.930;8.840;2023-03-14T09:11:26;0.70;;;0.70;;
15913;SDS011;8055;51.930;8.840;2023-03-14T09:13:52;0.82;;;0.60;;
15913;SDS011;8055;51.930;8.840;2023-03-14T09:16:17;1.45;;;0.70;;
15913;SDS011;8055;51.930;8.840;2023-03-14T09:18:43;1.27;;;0.77;;
15913;SDS011;8055;51.930;8.840;2023-03-14T09:21:08;0.82;;;0.80;;
15913;SDS011;8055;51.930;8.840;2023-03-14T09:23:33;1.00;;;0.77;;
15913;SDS011;8055;51.930;8.840;2023-03-14T09:25:59;0.95;;;0.80;;
15913;SDS011;8055;51.930;8.840;2023-03-14T09:28:25;0.73;;;0.73;;
15913;SDS011;8055;51.930;8.840;2023-03-14T09:30:51;1.50;;;0.80;;
15913;SDS011;8055;51.930;8.840;2023-03-14T09:33:17;1.95;;;0.80;;
15913;SDS011;8055;51.930;8.840;2023-03-14T09:35:43;1.83;;;0.90;;
15913;SDS011;8055;51.930;8.840;2023-03-14T09:38:09;0.60;;;0.60;;
15913;SDS011;8055;51.930;8.840;2023-03-14T09:40:35;0.85;;;0.70;;
15913;SDS011;8055;51.930;8.840;2023-03-14T09:43:01;0.85;;;0.70;;
15913;SDS011;8055;51.930;8.840;2023-03-14T09:45:28;0.88;;;0.80;;
15913;SDS011;8055;51.930;8.840;2023-03-14T09:47:56;0.65;;;0.65;;
15913;SDS011;8055;51.930;8.840;2023-03-14T09:50:23;2.47;;;0.90;;
15913;SDS011;8055;51.930;8.840;2023-03-14T09:52:50;1.15;;;0.73;;
15913;SDS011;8055;51.930;8.840;2023-03-14T09:55:21;1.03;;;0.70;;
15913;SDS011;8055;51.930;8.840;2023-03-14T09:57:48;2.40;;;1.98;;
15913;SDS011;8055;51.930;8.840;2023-03-14T10:00:19;1.10;;;0.75;;
15913;SDS011;8055;51.930;8.840;2023-03-14T10:02:53;1.30;;;1.20;;
15913;SDS011;8055;51.930;8.840;2023-03-14T10:05:21;1.50;;;0.90;;
15913;SDS011;8055;51.930;8.840;2023-03-14T10:07:49;1.45;;;0.85;;
15913;SDS011;8055;51.930;8.840;2023-03-14T10:10:21;0.88;;;0.73;;
15913;SDS011;8055;51.930;8.840;2023-03-14T10:15:26;1.30;;;1.20;;
15913;SDS011;8055;51.930;8.840;2023-03-14T10:17:58;1.27;;;1.17;;
15913;SDS011;8055;51.930;8.840;2023-03-14T10:22:59;1.25;;;0.95;;
15913;SDS011;8055;51.930;8.840;2023-03-14T10:25:29;1.20;;;1.10;;
15913;SDS011;8055;51.930;8.840;2023-03-14T10:27:57;1.13;;;0.90;;
15913;SDS011;8055;51.930;8.840;2023-03-14T10:31:05;1.20;;;1.10;;
15913;SDS011;8055;51.930;8.840;2023-03-14T10:35:43;1.55;;;1.40;;
15913;SDS011;8055;51.930;8.840;2023-03-14T10:38:16;1.15;;;1.05;;
15913;SDS011;8055;51.930;8.840;2023-03-14T10:40:46;2.35;;;1.40;;
15913;SDS011;8055;51.930;8.840;2023-03-14T10:43:15;1.70;;;1.60;;
15913;SDS011;8055;51.930;8.840;2023-03-14T10:45:47;2.40;;;1.77;;
15913;SDS011;8055;51.930;8.840;2023-03-14T10:51:04;2.20;;;2.00;;
15913;SDS011;8055;51.930;8.840;2023-03-14T10:53:41;2.08;;;1.83;;
15913;SDS011;8055;51.930;8.840;2023-03-14T10:56:16;2.70;;;2.05;;
15913;SDS011;8055;51.930;8.840;2023-03-14T10:58:49;2.95;;;2.20;;
15913;SDS011;8055;51.930;8.840;2023-03-14T11:07:04;4.03;;;2.33;;
15913;SDS011;8055;51.930;8.840;2023-03-14T11:14:57;1.08;;;0.60;;
15913;SDS011;8055;51.930;8.840;2023-03-14T11:17:40;2.47;;;0.60;;
15913;SDS011;8055;51.930;8.840;2023-03-14T11:23:00;2.67;;;1.00;;
15913;SDS011;8055;51.930;8.840;2023-03-14T11:28:23;1.30;;;0.77;;
15913;SDS011;8055;51.930;8.840;2023-03-14T11:34:00;0.65;;;0.63;;
15913;SDS011;8055;51.930;8.840;2023-03-14T11:36:29;2.40;;;0.65;;
15913;SDS011;8055;51.930;8.840;2023-03-14T11:38:59;0.88;;;0.50;;
15913;SDS011;8055;51.930;8.840;2023-03-14T11:41:38;1.30;;;0.70;;
15913;SDS011;8055;51.930;8.840;2023-03-14T11:44:10;0.80;;;0.50;;
15913;SDS011;8055;51.930;8.840;2023-03-14T11:49:50;0.70;;;0.32;;
15913;SDS011;8055;51.930;8.840;2023-03-14T11:52:27;0.82;;;0.40;;
15913;SDS011;8055;51.930;8.840;2023-03-14T11:55:39;1.40;;;0.63;;
15913;SDS011;8055;51.930;8.840;2023-03-14T11:57:55;1.15;;;0.50;;
15913;SDS011;8055;51.930;8.840;2023-03-14T12:00:23;0.73;;;0.50;;
15913;SDS011;8055;51.930;8.840;2023-03-14T12:08:32;2.30;;;0.60;;
15913;SDS011;8055;51.930;8.840;2023-03-14T12:11:01;0.90;;;0.70;;
15913;SDS011;8055;51.930;8.840;2023-03-14T12:13:37;0.60;;;0.60;;
15913;SDS011;8055;51.930;8.840;2023-03-14T12:16:48;0.80;;;0.80;;
15913;SDS011;8055;51.930;8.840;2023-03-14T12:19:13;1.73;;;0.80;;
15913;SDS011;8055;51.930;8.840;2023-03-14T12:21:48;0.70;;;0.70;;
15913;SDS011;8055;51.930;8.840;2023-03-14T12:24:18;1.25;;;0.80;;
15913;SDS011;8055;51.930;8.840;2023-03-14T12:26:54;1.38;;;1.00;;
15913;SDS011;8055;51.930;8.840;2023-03-14T12:29:21;3.22;;;1.02;;
15913;SDS011;8055;51.930;8.840;2023-03-14T12:31:48;1.50;;;1.15;;
15913;SDS011;8055;51.930;8.840;2023-03-14T12:42:02;5.68;;;1.75;;
15913;SDS011;8055;51.930;8.840;2023-03-14T12:46:59;7.63;;;1.77;;
15913;SDS011;8055;51.930;8.840;2023-03-14T12:49:39;7.15;;;1.55;;
15913;SDS011;8055;51.930;8.840;2023-03-14T12:52:12;9.32;;;2.22;;
15913;SDS011;8055;51.930;8.840;2023-03-14T12:54:44;9.57;;;2.33;;
15913;SDS011;8055;51.930;8.840;2023-03-14T13:00:17;8.43;;;2.25;;
15913;SDS011;8055;51.930;8.840;2023-03-14T13:02:45;8.65;;;2.47;;
15913;SDS011;8055;51.930;8.840;2023-03-14T13:05:20;9.68;;;2.25;;
15913;SDS011;8055;51.930;8.840;2023-03-14T13:12:51;10.18;;;2.83;;
15913;SDS011;8055;51.930;8.840;2023-03-14T13:15:18;8.85;;;2.25;;
15913;SDS011;8055;51.930;8.840;2023-03-14T13:18:01;7.05;;;2.13;;
15913;SDS011;8055;51.930;8.840;2023-03-14T13:20:35;8.88;;;2.20;;
15913;SDS011;8055;51.930;8.840;2023-03-14T13:23:03;8.60;;;1.73;;
15913;SDS011;8055;51.930;8.840;2023-03-14T13:25:32;8.65;;;2.10;;
15913;SDS011;8055;51.930;8.840;2023-03-14T13:28:00;7.70;;;1.83;;
15913;SDS011;8055;51.930;8.840;2023-03-14T13:30:27;7.47;;;1.63;;
15913;SDS011;8055;51.930;8.840;2023-03-14T13:33:00;8.32;;;2.10;;
15913;SDS011;8055;51.930;8.840;2023-03-14T13:35:29;6.00;;;1.58;;
15913;SDS011;8055;51.930;8.840;2023-03-14T13:38:04;12.02;;;2.08;;
15913;SDS011;8055;51.930;8.840;2023-03-14T13:40:30;14.70;;;2.00;;
15913;SDS011;8055;51.930;8.840;2023-03-14T13:43:17;9.35;;;2.05;;
15913;SDS011;8055;51.930;8.840;2023-03-14T13:45:56;4.65;;;1.67;;
15913;SDS011;8055;51.930;8.840;2023-03-14T13:48:28;10.85;;;1.92;;
15913;SDS011;8055;51.930;8.840;2023-03-14T13:50:56;5.57;;;1.70;;
15913;SDS011;8055;51.930;8.840;2023-03-14T13:53:25;8.95;;;2.42;;
15913;SDS011;8055;51.930;8.840;2023-03-14T13:55:51;14.82;;;2.55;;
15913;SDS011;8055;51.930;8.840;2023-03-14T13:58:24;14.75;;;2.47;;
15913;SDS011;8055;51.930;8.840;2023-03-14T14:00:53;12.55;;;2.05;;
15913;SDS011;8055;51.930;8.840;2023-03-14T14:05:50;22.02;;;2.88;;
15913;SDS011;8055;51.930;8.840;2023-03-14T14:08:15;12.55;;;2.58;;
15913;SDS011;8055;51.930;8.840;2023-03-14T14:10:40;18.65;;;3.25;;
15913;SDS011;8055;51.930;8.840;2023-03-14T14:13:08;17.25;;;2.60;;
15913;SDS011;8055;51.930;8.840;2023-03-14T14:15:40;15.88;;;2.65;;
15913;SDS011;8055;51.930;8.840;2023-03-14T14:18:09;17.88;;;3.25;;
15913;SDS011;8055;51.930;8.840;2023-03-14T14:20:40;16.50;;;2.92;;
15913;SDS011;8055;51.930;8.840;2023-03-14T14:23:15;19.25;;;3.35;;
15913;SDS011;8055;51.930;8.840;2023-03-14T14:25:49;15.90;;;3.67;;
15913;SDS011;8055;51.930;8.840;2023-03-14T14:28:32;21.30;;;3.13;;
15913;SDS011;8055;51.930;8.840;2023-03-14T14:31:04;21.73;;;3.05;;
15913;SDS011;8055;51.930;8.840;2023-03-14T14:33:45;17.20;;;3.17;;
15913;SDS011;8055;51.930;8.840;2023-03-14T14:36:15;17.08;;;3.10;;
15913;SDS011;8055;51.930;8.840;2023-03-14T14:38:49;18.35;;;3.80;;
15913;SDS011;8055;51.930;8.840;2023-03-14T14:41:15;21.60;;;3.50;;
15913;SDS011;8055;51.930;8.840;2023-03-14T14:43:40;25.10;;;4.47;;
15913;SDS011;8055;51.930;8.840;2023-03-14T14:46:06;19.77;;;4.00;;
15913;SDS011;8055;51.930;8.840;2023-03-14T14:48:37;16.88;;;3.53;;
15913;SDS011;8055;51.930;8.840;2023-03-14T14:51:04;18.75;;;3.03;;
15913;SDS011;8055;51.930;8.840;2023-03-14T14:53:38;16.38;;;3.30;;
15913;SDS011;8055;51.930;8.840;2023-03-14T14:58:47;18.73;;;3.17;;
15913;SDS011;8055;51.930;8.840;2023-03-14T15:01:23;15.23;;;3.30;;
15913;SDS011;8055;51.930;8.840;2023-03-14T15:03:50;14.95;;;2.83;;
15913;SDS011;8055;51.930;8.840;2023-03-14T15:06:17;18.92;;;4.15;;
15913;SDS011;8055;51.930;8.840;2023-03-14T15:08:44;17.10;;;2.45;;
15913;SDS011;8055;51.930;8.840;2023-03-14T15:11:18;17.98;;;3.42;;
15913;SDS011;8055;51.930;8.840;2023-03-14T15:13:51;10.25;;;2.50;;
15913;SDS011;8055;51.930;8.840;2023-03-14T15:16:18;8.88;;;2.38;;
15913;SDS011;8055;51.930;8.840;2023-03-14T15:18:50;17.02;;;2.92;;
15913;SDS011;8055;51.930;8.840;2023-03-14T15:21:20;14.55;;;3.05;;
15913;SDS011;8055;51.930;8.840;2023-03-14T15:23:45;12.18;;;3.05;;
15913;SDS011;8055;51.930;8.840;2023-03-14T15:26:11;11.02;;;2.35;;
15913;SDS011;8055;51.930;8.840;2023-03-14T15:28:40;15.05;;;2.90;;
15913;SDS011;8055;51.930;8.840;2023-03-14T15:31:08;13.85;;;3.15;;
15913;SDS011;8055;51.930;8.840;2023-03-14T15:33:35;10.07;;;2.78;;
15913;SDS011;8055;51.930;8.840;2023-03-14T15:36:01;15.20;;;2.50;;
15913;SDS011;8055;51.930;8.840;2023-03-14T15:38:28;10.05;;;2.15;;
15913;SDS011;8055;51.930;8.840;2023-03-14T15:40:53;10.63;;;2.42;;
15913;SDS011;8055;51.930;8.840;2023-03-14T15:43:19;12.50;;;3.35;;
15913;SDS011;8055;51.930;8.840;2023-03-14T15:45:45;12.15;;;2.75;;
15913;SDS011;8055;51.930;8.840;2023-03-14T15:48:14;15.30;;;3.78;;
15913;SDS011;8055;51.930;8.840;2023-03-14T15:50:42;14.00;;;4.72;;
15913;SDS011;8055;51.930;8.840;2023-03-14T15:53:08;12.20;;;3.30;;
15913;SDS011;8055;51.930;8.840;2023-03-14T15:55:34;8.93;;;2.92;;
15913;SDS011;8055;51.930;8.840;2023-03-14T15:57:59;16.27;;;2.95;;
15913;SDS011;8055;51.930;8.840;2023-03-14T16:00:26;10.63;;;2.65;;
15913;SDS011;8055;51.930;8.840;2023-03-14T16:02:52;11.90;;;2.78;;
15913;SDS011;8055;51.930;8.840;2023-03-14T16:05:17;13.02;;;3.10;;
15913;SDS011;8055;51.930;8.840;2023-03-14T16:07:44;16.25;;;3.47;;
15913;SDS011;8055;51.930;8.840;2023-03-14T16:10:10;11.18;;;2.20;;
15913;SDS011;8055;51.930;8.840;2023-03-14T16:12:36;10.68;;;2.50;;
15913;SDS011;8055;51.930;8.840;2023-03-14T16:15:02;12.35;;;2.58;;
15913;SDS011;8055;51.930;8.840;2023-03-14T16:17:27;15.38;;;2.83;;
15913;SDS011;8055;51.930;8.840;2023-03-14T16:19:53;11.73;;;2.42;;